createdAt,value
2023-01-08T00:00:00.864Z,31.10
2023-01-08T00:01:00.833Z,31.21
2023-01-08T00:02:00.761Z,31.04
2023-01-08T00:03:00.853Z,31.10
2023-01-08T00:04:00.829Z,31.26
2023-01-08T00:05:00.758Z,31.37
2023-01-08T00:06:00.715Z,31.10
2023-01-08T00:07:00.745Z,31.37
2023-01-08T00:08:00.697Z,31.26
2023-01-08T00:09:00.693Z,31.37
2023-01-08T00:10:00.755Z,31.37
2023-01-08T00:11:00.669Z,31.15
2023-01-08T00:12:00.655Z,31.10
2023-01-08T00:13:00.631Z,30.94
2023-01-08T00:14:00.623Z,31.42
2023-01-08T00:15:00.609Z,31.10
2023-01-08T00:16:00.586Z,32.23
2023-01-08T00:17:00.637Z,30.94
2023-01-08T00:18:00.556Z,32.33
2023-01-08T00:19:00.548Z,32.07
2023-01-08T00:20:00.656Z,31.15
2023-01-08T00:21:00.509Z,32.44
2023-01-08T00:22:00.506Z,31.42
2023-01-08T00:23:00.518Z,31.26
2023-01-08T00:24:00.483Z,31.04
2023-01-08T00:25:00.499Z,32.39
2023-01-08T00:26:00.468Z,31.15
2023-01-08T00:27:00.505Z,31.04
2023-01-08T00:28:00.481Z,32.33
2023-01-08T00:29:00.420Z,31.21
2023-01-08T00:30:00.456Z,31.04
2023-01-08T00:31:03.238Z,32.23
2023-01-08T00:32:00.408Z,31.21
2023-01-08T00:33:00.355Z,32.01
2023-01-08T00:34:00.501Z,32.60
2023-01-08T00:35:00.395Z,32.12
2023-01-08T00:36:00.343Z,30.88
2023-01-08T00:37:00.320Z,32.28
2023-01-08T00:38:00.337Z,31.10
2023-01-08T00:39:00.292Z,31.37
2023-01-08T00:40:00.313Z,31.04
2023-01-08T00:41:00.392Z,30.99
2023-01-08T00:42:00.260Z,31.37
2023-01-08T00:43:00.230Z,32.39
2023-01-08T00:44:00.217Z,32.23
2023-01-08T00:45:00.251Z,32.39
2023-01-08T00:46:00.330Z,31.31
2023-01-08T00:47:00.179Z,32.33
2023-01-08T00:48:00.168Z,30.99
2023-01-08T00:49:00.154Z,30.99
2023-01-08T00:50:00.163Z,32.39
2023-01-08T00:51:00.186Z,32.33
2023-01-08T00:52:00.126Z,32.60
2023-01-08T00:53:00.155Z,32.23
2023-01-08T00:54:00.122Z,32.60
2023-01-08T00:55:00.115Z,32.23
2023-01-08T00:56:00.092Z,32.23
2023-01-08T00:57:00.070Z,32.33
2023-01-08T00:58:00.043Z,32.07
2023-01-08T00:59:00.091Z,32.44
2023-01-08T01:00:00.044Z,32.17
2023-01-08T01:01:00.111Z,32.17
2023-01-08T01:02:00.163Z,32.33
2023-01-08T01:03:00.010Z,32.17
2023-01-08T01:04:00.000Z,32.55
2023-01-08T01:04:59.945Z,33.30
2023-01-08T01:05:59.955Z,33.35
2023-01-08T01:06:59.925Z,33.41
2023-01-08T01:07:59.917Z,32.01
2023-01-08T01:08:59.903Z,32.01
2023-01-08T01:09:59.881Z,33.52
2023-01-08T01:10:59.956Z,32.44
2023-01-08T01:11:59.922Z,32.50
2023-01-08T01:12:59.865Z,32.28
2023-01-08T01:13:59.822Z,32.98
2023-01-08T01:14:59.825Z,32.23
2023-01-08T01:15:59.841Z,33.52
2023-01-08T01:16:59.881Z,32.17
2023-01-08T01:17:59.773Z,33.19
2023-01-08T01:18:59.880Z,33.41
2023-01-08T01:19:59.768Z,33.35
2023-01-08T01:20:59.761Z,33.09
2023-01-08T01:21:59.760Z,33.09
2023-01-08T01:22:59.696Z,33.30
2023-01-08T01:23:59.689Z,33.14
2023-01-08T01:24:59.688Z,34.64
2023-01-08T01:25:59.704Z,33.41
2023-01-08T01:26:59.653Z,34.70
2023-01-08T01:27:59.643Z,34.38
2023-01-08T01:28:59.653Z,33.25
2023-01-08T01:29:59.612Z,34.43
2023-01-08T01:30:59.676Z,34.43
2023-01-08T01:31:59.618Z,33.35
2023-01-08T01:32:59.589Z,34.54
2023-01-08T01:33:59.564Z,34.43
2023-01-08T01:34:59.581Z,34.38
2023-01-08T01:35:59.633Z,34.48
2023-01-08T01:36:59.513Z,34.43
2023-01-08T01:37:59.537Z,34.21
2023-01-08T01:38:59.497Z,34.70
2023-01-08T01:39:59.498Z,34.54
2023-01-08T01:40:59.478Z,34.64
2023-01-08T01:41:59.539Z,35.61
2023-01-08T01:42:59.465Z,34.80
2023-01-08T01:43:59.434Z,35.72
2023-01-08T01:44:59.421Z,34.27
2023-01-08T01:45:59.434Z,34.75
2023-01-08T01:46:59.411Z,35.61
2023-01-08T01:47:59.399Z,35.50
2023-01-08T01:48:59.376Z,35.83
2023-01-08T01:49:59.349Z,35.83
2023-01-08T01:50:59.335Z,35.72
2023-01-08T01:51:59.344Z,35.77
2023-01-08T01:52:59.306Z,35.34
2023-01-08T01:53:59.305Z,35.99
2023-01-08T01:54:59.356Z,35.61
2023-01-08T01:55:59.274Z,35.50
2023-01-08T01:56:59.281Z,35.61
2023-01-08T01:57:59.253Z,35.50
2023-01-08T01:58:59.231Z,35.18
2023-01-08T01:59:59.222Z,36.58
2023-01-08T02:00:59.269Z,35.45
2023-01-08T02:01:59.370Z,35.83
2023-01-08T02:02:59.212Z,35.88
2023-01-08T02:03:59.210Z,35.66
2023-01-08T02:04:59.148Z,36.52
2023-01-08T02:05:59.192Z,35.50
2023-01-08T02:06:59.197Z,36.31
2023-01-08T02:07:59.131Z,36.52
2023-01-08T02:08:59.126Z,36.63
2023-01-08T02:09:59.106Z,36.74
2023-01-08T02:10:59.069Z,36.63
2023-01-08T02:11:59.079Z,36.47
2023-01-08T02:12:59.154Z,36.90
2023-01-08T02:13:59.042Z,36.79
2023-01-08T02:14:59.020Z,37.81
2023-01-08T02:15:59.082Z,36.68
2023-01-08T02:16:59.068Z,38.08
2023-01-08T02:17:59.038Z,36.90
2023-01-08T02:18:58.976Z,37.87
2023-01-08T02:19:58.967Z,36.85
2023-01-08T02:20:58.967Z,37.81
2023-01-08T02:21:58.954Z,37.87
2023-01-08T02:22:59.076Z,37.87
2023-01-08T02:23:58.909Z,37.76
2023-01-08T02:24:58.895Z,37.87
2023-01-08T02:25:58.966Z,37.76
2023-01-08T02:26:58.900Z,37.71
2023-01-08T02:27:58.864Z,37.76
2023-01-08T02:28:58.838Z,37.87
2023-01-08T02:29:58.833Z,37.87
2023-01-08T02:30:58.881Z,39.05
2023-01-08T02:31:58.899Z,37.76
2023-01-08T02:32:58.842Z,38.08
2023-01-08T02:33:58.773Z,37.71
2023-01-08T02:34:58.836Z,37.87
2023-01-08T02:35:58.752Z,39.10
2023-01-08T02:36:58.761Z,39.16
2023-01-08T02:37:58.760Z,38.99
2023-01-08T02:38:58.797Z,37.92
2023-01-08T02:39:58.702Z,37.76
2023-01-08T02:40:58.682Z,38.73
2023-01-08T02:41:58.684Z,38.89
2023-01-08T02:42:58.668Z,39.10
2023-01-08T02:43:58.725Z,37.54
2023-01-08T02:44:58.644Z,38.99
2023-01-08T02:45:58.657Z,39.26
2023-01-08T02:46:58.645Z,38.94
2023-01-08T02:47:58.614Z,39.26
2023-01-08T02:48:58.591Z,39.32
2023-01-08T02:49:58.558Z,38.89
2023-01-08T02:50:58.625Z,39.05
2023-01-08T02:51:58.550Z,38.99
2023-01-08T02:52:58.528Z,39.05
2023-01-08T02:53:58.591Z,39.05
2023-01-08T02:54:58.535Z,39.16
2023-01-08T02:55:58.512Z,40.28
2023-01-08T02:56:58.526Z,40.39
2023-01-08T02:57:58.458Z,39.96
2023-01-08T02:58:58.442Z,40.12
2023-01-08T02:59:58.437Z,40.07
2023-01-08T03:00:58.425Z,38.78
2023-01-08T03:01:58.530Z,40.01
2023-01-08T03:02:58.410Z,40.23
2023-01-08T03:03:58.521Z,40.39
2023-01-08T03:04:58.477Z,40.01
2023-01-08T03:05:58.362Z,40.12
2023-01-08T03:06:58.343Z,40.12
2023-01-08T03:07:58.338Z,40.39
2023-01-08T03:08:58.331Z,40.23
2023-01-08T03:09:58.307Z,40.34
2023-01-08T03:10:58.331Z,42.59
2023-01-08T03:11:58.284Z,42.75
2023-01-08T03:12:58.309Z,40.12
2023-01-08T03:13:58.295Z,40.07
2023-01-08T03:14:58.228Z,40.07
2023-01-08T03:15:58.223Z,42.38
2023-01-08T03:16:58.265Z,42.81
2023-01-08T03:17:58.220Z,42.54
2023-01-08T03:18:58.174Z,39.96
2023-01-08T03:19:58.174Z,40.07
2023-01-08T03:20:58.188Z,40.07
2023-01-08T03:21:58.149Z,42.38
2023-01-08T03:22:58.154Z,40.18
2023-01-08T03:23:58.131Z,40.01
2023-01-08T03:24:58.129Z,42.65
2023-01-08T03:25:58.102Z,40.07
2023-01-08T03:26:58.092Z,40.07
2023-01-08T03:27:58.115Z,40.34
2023-01-08T03:28:58.064Z,42.75
2023-01-08T03:29:58.070Z,42.43
2023-01-08T03:30:58.078Z,42.49
2023-01-08T03:31:58.012Z,42.70
2023-01-08T03:32:58.020Z,42.49
2023-01-08T03:33:58.023Z,42.38
2023-01-08T03:34:57.974Z,42.81
2023-01-08T03:35:57.988Z,42.75
2023-01-08T03:36:57.980Z,42.49
2023-01-08T03:37:57.952Z,42.54
2023-01-08T03:38:57.998Z,45.01
2023-01-08T03:39:57.905Z,42.59
2023-01-08T03:40:57.908Z,42.49
2023-01-08T03:41:57.885Z,42.38
2023-01-08T03:42:57.926Z,42.49
2023-01-08T03:43:57.888Z,42.92
2023-01-08T03:44:57.849Z,45.17
2023-01-08T03:45:57.894Z,44.96
2023-01-08T03:46:57.822Z,45.17
2023-01-08T03:47:57.813Z,44.79
2023-01-08T03:48:57.814Z,45.28
2023-01-08T03:49:57.780Z,45.12
2023-01-08T03:50:57.797Z,44.74
2023-01-08T03:51:57.810Z,45.06
2023-01-08T03:53:00.528Z,45.01
2023-01-08T03:53:57.746Z,45.28
2023-01-08T03:54:57.704Z,45.17
2023-01-08T03:55:57.732Z,45.01
2023-01-08T03:56:57.690Z,44.90
2023-01-08T03:57:57.696Z,44.85
2023-01-08T03:58:57.675Z,44.90
2023-01-08T03:59:57.728Z,45.06
2023-01-08T04:00:57.644Z,45.01
2023-01-08T04:01:57.735Z,42.32
2023-01-08T04:02:57.612Z,45.06
2023-01-08T04:03:57.734Z,45.22
2023-01-08T04:04:57.592Z,45.01
2023-01-08T04:05:57.584Z,45.28
2023-01-08T04:06:57.554Z,45.33
2023-01-08T04:07:57.536Z,45.33
2023-01-08T04:08:57.558Z,45.39
2023-01-08T04:09:57.521Z,42.65
2023-01-08T04:10:57.504Z,42.38
2023-01-08T04:11:57.524Z,43.08
2023-01-08T04:12:57.483Z,45.01
2023-01-08T04:13:57.476Z,42.54
2023-01-08T04:14:57.466Z,45.17
2023-01-08T04:15:57.492Z,45.17
2023-01-08T04:16:57.433Z,45.22
2023-01-08T04:17:57.398Z,45.06
2023-01-08T04:18:57.433Z,45.17
2023-01-08T04:19:57.387Z,45.06
2023-01-08T04:20:57.370Z,44.90
2023-01-08T04:21:57.353Z,42.27
2023-01-08T04:22:57.348Z,44.85
2023-01-08T04:23:57.369Z,44.96
2023-01-08T04:24:57.344Z,44.96
2023-01-08T04:25:57.304Z,45.28
2023-01-08T04:26:57.284Z,42.43
2023-01-08T04:27:57.276Z,42.70
2023-01-08T04:28:57.288Z,45.06
2023-01-08T04:29:57.283Z,44.90
2023-01-08T04:30:57.308Z,45.17
2023-01-08T04:31:57.220Z,44.85
2023-01-08T04:32:57.213Z,42.38
2023-01-08T04:33:57.229Z,42.43
2023-01-08T04:34:57.202Z,45.28
2023-01-08T04:35:57.167Z,42.54
2023-01-08T04:36:57.177Z,45.28
2023-01-08T04:37:57.141Z,44.96
2023-01-08T04:38:57.136Z,44.79
2023-01-08T04:39:57.142Z,45.33
2023-01-08T04:40:57.142Z,45.12
2023-01-08T04:41:57.103Z,42.54
2023-01-08T04:42:57.077Z,42.27
2023-01-08T04:43:57.076Z,45.17
2023-01-08T04:44:57.072Z,42.49
2023-01-08T04:45:57.054Z,45.22
2023-01-08T04:46:57.049Z,45.06
2023-01-08T04:47:57.028Z,42.22
2023-01-08T04:48:57.055Z,45.06
2023-01-08T04:49:57.098Z,45.12
2023-01-08T04:50:56.994Z,45.12
2023-01-08T04:51:56.963Z,45.06
2023-01-08T04:52:56.957Z,42.43
2023-01-08T04:53:56.988Z,42.43
2023-01-08T04:54:56.931Z,42.43
2023-01-08T04:55:56.908Z,42.75
2023-01-08T04:56:56.902Z,42.32
2023-01-08T04:57:56.879Z,42.38
2023-01-08T04:58:56.899Z,42.54
2023-01-08T04:59:56.874Z,42.54
2023-01-08T05:00:56.860Z,42.54
2023-01-08T05:01:57.045Z,42.59
2023-01-08T05:02:56.893Z,42.49
2023-01-08T05:03:56.835Z,42.65
2023-01-08T05:04:56.840Z,42.70
2023-01-08T05:05:56.785Z,42.32
2023-01-08T05:06:56.817Z,42.49
2023-01-08T05:07:56.786Z,42.43
2023-01-08T05:08:56.752Z,42.49
2023-01-08T05:09:56.788Z,40.23
2023-01-08T05:10:56.722Z,42.32
2023-01-08T05:11:56.718Z,42.59
2023-01-08T05:12:56.722Z,42.59
2023-01-08T05:13:56.701Z,42.75
2023-01-08T05:14:56.711Z,42.54
2023-01-08T05:15:56.692Z,42.49
2023-01-08T05:16:56.645Z,42.43
2023-01-08T05:17:56.624Z,42.70
2023-01-08T05:18:56.627Z,42.70
2023-01-08T05:19:56.612Z,42.27
2023-01-08T05:20:56.578Z,40.12
2023-01-08T05:21:56.573Z,42.49
2023-01-08T05:22:56.581Z,40.01
2023-01-08T05:23:56.562Z,42.54
2023-01-08T05:24:56.561Z,40.01
2023-01-08T05:25:56.516Z,40.28
2023-01-08T05:26:56.496Z,40.18
2023-01-08T05:27:56.513Z,42.54
2023-01-08T05:28:56.522Z,39.96
2023-01-08T05:29:56.517Z,40.23
2023-01-08T05:30:56.579Z,40.28
2023-01-08T05:31:56.481Z,40.12
2023-01-08T05:32:56.430Z,40.12
2023-01-08T05:33:56.402Z,40.39
2023-01-08T05:34:56.418Z,40.34
2023-01-08T05:35:56.404Z,40.12
2023-01-08T05:36:56.387Z,40.07
2023-01-08T05:37:56.361Z,40.18
2023-01-08T05:38:56.357Z,40.34
2023-01-08T05:39:56.383Z,40.01
2023-01-08T05:40:56.339Z,40.18
2023-01-08T05:41:56.319Z,40.18
2023-01-08T05:42:56.305Z,39.96
2023-01-08T05:43:56.290Z,38.83
2023-01-08T05:44:56.307Z,39.91
2023-01-08T05:45:56.331Z,40.18
2023-01-08T05:46:56.250Z,40.34
2023-01-08T05:47:56.223Z,39.10
2023-01-08T05:48:56.217Z,39.85
2023-01-08T05:49:56.220Z,39.10
2023-01-08T05:50:56.191Z,38.94
2023-01-08T05:51:56.172Z,40.07
2023-01-08T05:52:56.192Z,40.28
2023-01-08T05:53:56.143Z,40.01
2023-01-08T05:54:56.174Z,38.99
2023-01-08T05:55:56.127Z,40.18
2023-01-08T05:56:56.106Z,38.83
2023-01-08T05:57:56.096Z,40.28
2023-01-08T05:58:56.160Z,38.83
2023-01-08T05:59:56.101Z,40.39
2023-01-08T06:00:56.057Z,38.83
2023-01-08T06:01:56.038Z,39.32
2023-01-08T06:02:56.139Z,39.10
2023-01-08T06:03:56.100Z,39.10
2023-01-08T06:04:56.053Z,40.12
2023-01-08T06:05:56.013Z,39.05
2023-01-08T06:06:55.979Z,40.23
2023-01-08T06:07:55.971Z,39.96
2023-01-08T06:08:55.972Z,38.99
2023-01-08T06:09:55.964Z,38.99
2023-01-08T06:10:55.959Z,39.05
2023-01-08T06:11:55.935Z,39.05
2023-01-08T06:12:55.918Z,39.16
2023-01-08T06:13:55.897Z,38.94
2023-01-08T06:14:55.890Z,38.89
2023-01-08T06:15:55.905Z,39.21
2023-01-08T06:16:55.885Z,39.16
2023-01-08T06:17:55.846Z,39.21
2023-01-08T06:18:55.829Z,38.94
2023-01-08T06:19:55.918Z,40.01
2023-01-08T06:20:55.809Z,38.89
2023-01-08T06:21:55.789Z,39.05
2023-01-08T06:22:55.779Z,38.94
2023-01-08T06:23:55.785Z,38.99
2023-01-08T06:24:55.773Z,39.21
2023-01-08T06:25:55.740Z,38.78
2023-01-08T06:26:55.727Z,38.83
2023-01-08T06:27:55.715Z,38.89
2023-01-08T06:28:55.715Z,38.78
2023-01-08T06:29:55.705Z,38.99
2023-01-08T06:30:55.729Z,38.99
2023-01-08T06:31:55.679Z,39.21
2023-01-08T06:32:55.644Z,39.05
2023-01-08T06:33:55.634Z,38.73
2023-01-08T06:34:55.786Z,39.10
2023-01-08T06:35:55.614Z,38.94
2023-01-08T06:36:55.591Z,39.21
2023-01-08T06:37:55.583Z,38.99
2023-01-08T06:38:55.574Z,38.94
2023-01-08T06:39:55.609Z,39.05
2023-01-08T06:40:55.543Z,38.99
2023-01-08T06:41:55.538Z,38.73
2023-01-08T06:42:55.560Z,38.83
2023-01-08T06:43:55.497Z,38.99
2023-01-08T06:44:55.500Z,38.94
2023-01-08T06:45:55.488Z,38.94
2023-01-08T06:46:55.551Z,39.16
2023-01-08T06:47:55.454Z,38.83
2023-01-08T06:48:55.456Z,40.28
2023-01-08T06:49:55.439Z,38.89
2023-01-08T06:50:55.419Z,39.16
2023-01-08T06:51:55.429Z,38.94
2023-01-08T06:52:55.394Z,38.89
2023-01-08T06:53:55.364Z,38.94
2023-01-08T06:54:55.381Z,38.94
2023-01-08T06:55:55.337Z,40.34
2023-01-08T06:56:55.328Z,38.89
2023-01-08T06:57:55.328Z,39.42
2023-01-08T06:58:55.336Z,40.12
2023-01-08T06:59:55.313Z,40.23
2023-01-08T07:00:55.305Z,38.67
2023-01-08T07:01:55.430Z,40.12
2023-01-08T07:02:55.382Z,38.83
2023-01-08T07:03:55.190Z,39.32
2023-01-08T07:04:55.197Z,40.28
2023-01-08T07:05:55.176Z,38.99
2023-01-08T07:06:55.174Z,38.94
2023-01-08T07:07:55.127Z,39.96
2023-01-08T07:08:55.119Z,39.10
2023-01-08T07:09:55.100Z,40.12
2023-01-08T07:10:55.125Z,40.23
2023-01-08T07:11:55.076Z,39.16
2023-01-08T07:12:55.088Z,39.26
2023-01-08T07:13:55.050Z,40.39
2023-01-08T07:14:55.038Z,40.28
2023-01-08T07:15:55.085Z,40.07
2023-01-08T07:16:55.014Z,38.78
2023-01-08T07:17:54.997Z,39.96
2023-01-08T07:18:54.981Z,40.07
2023-01-08T07:19:54.979Z,38.89
2023-01-08T07:20:54.984Z,39.05
2023-01-08T07:21:54.973Z,39.21
2023-01-08T07:22:54.940Z,40.44
2023-01-08T07:23:54.925Z,40.28
2023-01-08T07:24:54.921Z,40.07
2023-01-08T07:25:54.999Z,40.12
2023-01-08T07:26:54.881Z,38.94
2023-01-08T07:27:54.866Z,39.10
2023-01-08T07:28:54.860Z,38.78
2023-01-08T07:29:54.863Z,40.01
2023-01-08T07:30:54.967Z,38.89
2023-01-08T07:31:54.818Z,39.21
2023-01-08T07:32:54.815Z,39.21
2023-01-08T07:33:54.782Z,38.94
2023-01-08T07:34:54.850Z,40.12
2023-01-08T07:35:54.770Z,40.18
2023-01-08T07:36:54.752Z,39.96
2023-01-08T07:37:54.732Z,40.23
2023-01-08T07:38:54.737Z,40.39
2023-01-08T07:39:54.725Z,40.12
2023-01-08T07:40:54.789Z,38.83
2023-01-08T07:41:54.694Z,40.39
2023-01-08T07:42:54.716Z,40.39
2023-01-08T07:43:54.667Z,38.89
2023-01-08T07:44:54.669Z,38.51
2023-01-08T07:45:54.658Z,40.07
2023-01-08T07:46:54.667Z,38.78
2023-01-08T07:47:54.646Z,38.83
2023-01-08T07:48:54.596Z,39.91
2023-01-08T07:49:54.576Z,40.18
2023-01-08T07:50:54.609Z,38.89
2023-01-08T07:51:54.567Z,39.10
2023-01-08T07:52:54.562Z,40.23
2023-01-08T07:53:54.523Z,40.23
2023-01-08T07:54:54.536Z,39.21
2023-01-08T07:55:54.528Z,40.12
2023-01-08T07:56:54.508Z,38.83
2023-01-08T07:57:54.473Z,40.07
2023-01-08T07:58:54.471Z,40.23
2023-01-08T07:59:54.474Z,38.99
2023-01-08T08:00:54.470Z,40.23
2023-01-08T08:01:54.564Z,40.01
2023-01-08T08:02:54.550Z,40.28
2023-01-08T08:03:54.404Z,38.89
2023-01-08T08:04:54.449Z,40.18
2023-01-08T08:05:54.387Z,40.34
2023-01-08T08:06:54.370Z,38.83
2023-01-08T08:07:54.396Z,39.10
2023-01-08T08:08:54.352Z,38.89
2023-01-08T08:09:54.318Z,39.26
2023-01-08T08:10:54.360Z,40.18
2023-01-08T08:11:54.284Z,39.21
2023-01-08T08:12:54.308Z,39.05
2023-01-08T08:13:56.651Z,40.01
2023-01-08T08:14:54.273Z,40.23
2023-01-08T08:15:54.352Z,39.75
2023-01-08T08:16:54.247Z,39.21
2023-01-08T08:17:54.215Z,39.05
2023-01-08T08:18:54.211Z,38.94
2023-01-08T08:19:54.192Z,39.16
2023-01-08T08:20:54.194Z,40.39
2023-01-08T08:21:54.169Z,39.10
2023-01-08T08:22:54.181Z,38.99
2023-01-08T08:23:54.139Z,39.10
2023-01-08T08:24:54.133Z,39.69
2023-01-08T08:25:54.153Z,37.92
2023-01-08T08:26:54.111Z,39.05
2023-01-08T08:27:54.071Z,39.10
2023-01-08T08:28:54.158Z,38.99
2023-01-08T08:29:54.066Z,38.99
2023-01-08T08:30:54.100Z,38.94
2023-01-08T08:31:54.053Z,38.99
2023-01-08T08:32:54.057Z,38.83
2023-01-08T08:33:54.024Z,38.78
2023-01-08T08:34:53.983Z,38.99
2023-01-08T08:35:54.017Z,38.94
2023-01-08T08:36:53.967Z,38.99
2023-01-08T08:37:53.950Z,39.16
2023-01-08T08:38:53.944Z,38.73
2023-01-08T08:39:53.931Z,38.94
2023-01-08T08:40:53.932Z,38.83
2023-01-08T08:41:53.901Z,39.05
2023-01-08T08:42:53.938Z,37.81
2023-01-08T08:43:53.883Z,37.81
2023-01-08T08:44:53.863Z,39.16
2023-01-08T08:45:53.868Z,38.73
2023-01-08T08:46:53.925Z,33.89
2023-01-08T08:47:53.838Z,39.21
2023-01-08T08:48:53.803Z,38.83
2023-01-08T08:49:53.790Z,39.16
2023-01-08T08:50:53.802Z,38.94
2023-01-08T08:51:53.772Z,37.81
2023-01-08T08:52:53.767Z,37.71
2023-01-08T08:53:53.747Z,37.44
2023-01-08T08:54:53.723Z,37.92
2023-01-08T08:55:53.935Z,37.71
2023-01-08T08:56:53.733Z,38.83
2023-01-08T08:57:53.712Z,37.97
2023-01-08T08:58:53.684Z,37.92
2023-01-08T08:59:53.681Z,38.78
2023-01-08T09:00:53.688Z,37.87
2023-01-08T09:01:53.764Z,38.03
2023-01-08T09:02:53.754Z,38.03
2023-01-08T09:03:53.626Z,37.60
2023-01-08T09:04:53.600Z,36.09
2023-01-08T09:05:53.618Z,37.87
2023-01-08T09:06:53.575Z,37.54
2023-01-08T09:07:53.557Z,37.92
2023-01-08T09:08:53.544Z,37.81
2023-01-08T09:09:53.540Z,37.87
2023-01-08T09:10:53.534Z,37.54
2023-01-08T09:11:53.499Z,37.87
2023-01-08T09:12:53.496Z,37.97
2023-01-08T09:13:53.507Z,37.92
2023-01-08T09:14:53.486Z,37.60
2023-01-08T09:15:53.525Z,37.81
2023-01-08T09:16:53.451Z,37.49
2023-01-08T09:17:53.432Z,37.97
2023-01-08T09:18:53.426Z,37.87
2023-01-08T09:19:53.436Z,37.87
2023-01-08T09:20:53.402Z,37.76
2023-01-08T09:21:53.379Z,36.85
2023-01-08T09:22:53.423Z,37.65
2023-01-08T09:23:53.356Z,38.40
2023-01-08T09:24:53.343Z,37.97
2023-01-08T09:25:53.344Z,36.47
2023-01-08T09:26:53.479Z,37.71
2023-01-08T09:27:53.303Z,36.68
2023-01-08T09:28:53.274Z,36.47
2023-01-08T09:29:53.304Z,37.76
2023-01-08T09:30:53.276Z,36.42
2023-01-08T09:31:53.306Z,32.23
2023-01-08T09:32:53.251Z,33.41
2023-01-08T09:33:53.219Z,32.33
2023-01-08T09:34:53.207Z,36.04
2023-01-08T09:35:53.212Z,34.91
2023-01-08T09:36:53.180Z,35.45
2023-01-08T09:37:53.170Z,36.58
2023-01-08T09:38:53.149Z,36.58
2023-01-08T09:40:01.666Z,36.09
2023-01-08T09:40:53.154Z,36.90
2023-01-08T09:41:53.120Z,36.90
2023-01-08T09:42:53.125Z,37.06
2023-01-08T09:43:53.095Z,34.91
2023-01-08T09:44:53.071Z,36.42
2023-01-08T09:45:53.109Z,37.49
2023-01-08T09:46:53.118Z,36.85
2023-01-08T09:47:53.037Z,36.68
2023-01-08T09:48:53.018Z,37.81
2023-01-08T09:49:53.017Z,34.21
2023-01-08T09:50:53.022Z,36.68
2023-01-08T09:51:52.987Z,36.42
2023-01-08T09:52:52.987Z,31.85
2023-01-08T09:53:52.958Z,36.63
2023-01-08T09:54:52.939Z,36.68
2023-01-08T09:56:08.169Z,36.95
2023-01-08T09:56:52.931Z,36.74
2023-01-08T09:57:52.908Z,36.68
2023-01-08T09:58:52.910Z,36.58
2023-01-08T09:59:52.925Z,36.42
2023-01-08T10:00:52.932Z,36.95
2023-01-08T10:01:52.936Z,36.79
2023-01-08T10:02:52.884Z,36.79
2023-01-08T10:03:52.829Z,36.79
2023-01-08T10:04:54.459Z,36.47
2023-01-08T10:05:52.835Z,36.90
2023-01-08T10:06:52.817Z,36.47
2023-01-08T10:07:52.808Z,36.52
2023-01-08T10:08:52.782Z,36.90
2023-01-08T10:09:52.793Z,36.85
2023-01-08T10:10:52.731Z,36.58
2023-01-08T10:11:52.739Z,36.74
2023-01-08T10:12:52.794Z,36.68
2023-01-08T10:13:52.725Z,36.79
2023-01-08T10:14:54.394Z,35.83
2023-01-08T10:15:52.720Z,36.47
2023-01-08T10:16:52.691Z,36.90
2023-01-08T10:17:52.750Z,36.47
2023-01-08T10:18:52.636Z,35.72
2023-01-08T10:19:52.660Z,36.85
2023-01-08T10:20:54.642Z,35.72
2023-01-08T10:21:52.610Z,36.90
2023-01-08T10:22:52.607Z,36.63
2023-01-08T10:23:52.565Z,36.74
2023-01-08T10:24:52.558Z,35.61
2023-01-08T10:25:52.527Z,36.52
2023-01-08T10:26:54.373Z,35.83
2023-01-08T10:27:52.500Z,36.74
2023-01-08T10:28:52.510Z,35.77
2023-01-08T10:29:52.608Z,36.74
2023-01-08T10:30:52.468Z,36.79
2023-01-08T10:31:52.511Z,35.61
2023-01-08T10:32:54.291Z,35.61
2023-01-08T10:33:52.428Z,36.68
2023-01-08T10:34:52.409Z,35.61
2023-01-08T10:35:52.441Z,33.35
2023-01-08T10:36:52.432Z,36.85
2023-01-08T10:37:52.388Z,36.15
2023-01-08T10:38:52.371Z,35.13
2023-01-08T10:39:52.352Z,35.50
2023-01-08T10:40:52.330Z,35.88
2023-01-08T10:41:52.341Z,35.50
2023-01-08T10:42:52.310Z,35.88
2023-01-08T10:43:52.300Z,36.90
2023-01-08T10:44:52.277Z,35.77
2023-01-08T10:45:52.345Z,35.83
2023-01-08T10:46:52.276Z,35.77
2023-01-08T10:47:52.238Z,35.56
2023-01-08T10:48:52.263Z,36.58
2023-01-08T10:49:52.225Z,35.66
2023-01-08T10:50:52.234Z,35.72
2023-01-08T10:51:52.237Z,35.61
2023-01-08T10:52:52.200Z,35.77
2023-01-08T10:53:52.169Z,35.83
2023-01-08T10:54:52.145Z,35.50
